createdAt,value
2022-12-18T00:02:08.897Z,100.00
2022-12-18T00:04:35.418Z,100.00
2022-12-18T00:07:01.974Z,100.00
2022-12-18T00:09:31.152Z,100.00
2022-12-18T00:14:42.971Z,100.00
2022-12-18T00:17:10.114Z,100.00
2022-12-18T00:19:36.825Z,100.00
2022-12-18T00:22:03.557Z,100.00
2022-12-18T00:24:30.146Z,100.00
2022-12-18T00:26:56.732Z,100.00
2022-12-18T00:29:23.275Z,100.00
2022-12-18T00:31:49.883Z,100.00
2022-12-18T00:34:16.823Z,100.00
2022-12-18T00:36:43.397Z,100.00
2022-12-18T00:39:11.879Z,100.00
2022-12-18T00:41:57.480Z,100.00
2022-12-18T00:44:24.068Z,100.00
2022-12-18T00:46:50.608Z,100.00
2022-12-18T00:49:19.134Z,100.00
2022-12-18T00:51:46.538Z,100.00
2022-12-18T00:54:15.084Z,100.00
2022-12-18T00:56:49.970Z,100.00
2022-12-18T00:59:19.929Z,99.73
2022-12-18T01:01:47.029Z,100.00
2022-12-18T01:04:14.257Z,100.00
2022-12-18T01:06:41.186Z,100.00
2022-12-18T01:09:07.724Z,100.00
2022-12-18T01:11:34.378Z,100.00
2022-12-18T01:14:00.974Z,100.00
2022-12-18T01:16:27.689Z,100.00
2022-12-18T01:18:55.528Z,100.00
2022-12-18T01:21:22.943Z,100.00
2022-12-18T01:23:54.560Z,100.00
2022-12-18T01:26:21.280Z,100.00
2022-12-18T01:28:48.207Z,100.00
2022-12-18T01:31:29.594Z,100.00
2022-12-18T01:33:57.220Z,100.00
2022-12-18T01:36:37.849Z,100.00
2022-12-18T01:39:11.126Z,99.91
2022-12-18T01:41:56.454Z,99.67
2022-12-18T01:44:50.791Z,99.51
2022-12-18T01:47:41.183Z,98.96
2022-12-18T01:50:15.960Z,98.84
2022-12-18T01:52:47.888Z,98.26
2022-12-18T01:55:17.326Z,98.16
2022-12-18T01:57:44.147Z,97.33
2022-12-18T02:00:14.921Z,96.71
2022-12-18T02:02:43.967Z,97.33
2022-12-18T02:05:12.828Z,96.97
2022-12-18T02:08:09.019Z,97.29
2022-12-18T02:10:56.893Z,98.00
2022-12-18T02:13:33.508Z,98.16
2022-12-18T02:16:28.482Z,98.29
2022-12-18T02:19:02.061Z,98.85
2022-12-18T02:22:24.170Z,99.11
2022-12-18T02:25:31.469Z,98.71
2022-12-18T02:28:01.601Z,97.98
2022-12-18T02:30:32.236Z,97.75
2022-12-18T02:33:02.040Z,97.87
2022-12-18T02:35:31.287Z,98.31
2022-12-18T02:37:59.337Z,98.33
2022-12-18T02:40:28.526Z,98.86
2022-12-18T02:42:55.615Z,98.35
2022-12-18T02:45:22.195Z,97.87
2022-12-18T02:47:50.787Z,97.98
2022-12-18T02:50:42.828Z,98.62
2022-12-18T02:53:41.730Z,98.50
2022-12-18T02:56:20.456Z,98.01
2022-12-18T02:58:58.669Z,97.82
2022-12-18T03:01:34.837Z,97.83
2022-12-18T03:04:31.787Z,97.92
2022-12-18T03:07:03.873Z,97.52
2022-12-18T03:09:37.571Z,97.64
2022-12-18T03:12:26.495Z,97.63
2022-12-18T03:15:14.524Z,97.94
2022-12-18T03:17:54.053Z,97.59
2022-12-18T03:20:23.083Z,98.44
2022-12-18T03:22:54.801Z,97.84
2022-12-18T03:25:22.557Z,98.48
2022-12-18T03:27:55.476Z,97.87
2022-12-18T03:30:22.098Z,98.45
2022-12-18T03:32:57.649Z,98.03
2022-12-18T03:35:34.318Z,97.84
2022-12-18T03:38:01.046Z,98.39
2022-12-18T03:40:56.255Z,98.98
2022-12-18T03:43:41.225Z,99.26
2022-12-18T03:46:16.506Z,99.57
2022-12-18T03:48:51.749Z,99.54
2022-12-18T03:51:27.289Z,100.00
2022-12-18T03:54:07.437Z,99.97
2022-12-18T03:56:39.690Z,100.00
2022-12-18T03:59:08.944Z,100.00
2022-12-18T04:01:40.873Z,100.00
2022-12-18T04:04:09.418Z,100.00
2022-12-18T04:06:37.199Z,100.00
2022-12-18T04:09:05.745Z,100.00
2022-12-18T04:11:32.336Z,99.37
2022-12-18T04:13:59.694Z,99.89
2022-12-18T04:16:27.414Z,99.81
2022-12-18T04:18:55.269Z,100.00
2022-12-18T04:21:22.096Z,99.91
2022-12-18T04:23:48.608Z,100.00
2022-12-18T04:26:15.197Z,100.00
2022-12-18T04:28:41.862Z,100.00
2022-12-18T04:31:08.444Z,100.00
2022-12-18T04:33:35.124Z,100.00
2022-12-18T04:36:01.704Z,100.00
2022-12-18T04:38:28.400Z,100.00
2022-12-18T04:40:55.012Z,100.00
2022-12-18T04:43:21.883Z,100.00
2022-12-18T04:45:48.496Z,100.00
2022-12-18T04:48:15.179Z,100.00
2022-12-18T04:50:41.676Z,100.00
2022-12-18T04:53:08.255Z,100.00
2022-12-18T04:55:35.130Z,100.00
2022-12-18T04:58:01.628Z,100.00
2022-12-18T05:00:28.387Z,100.00
2022-12-18T05:02:55.508Z,100.00
2022-12-18T05:05:22.143Z,100.00
2022-12-18T05:07:48.736Z,100.00
2022-12-18T05:10:15.256Z,100.00
2022-12-18T05:13:00.829Z,100.00
2022-12-18T05:15:32.416Z,100.00
2022-12-18T05:18:00.206Z,100.00
2022-12-18T05:20:28.236Z,100.00
2022-12-18T05:22:55.541Z,100.00
2022-12-18T05:25:22.537Z,100.00
2022-12-18T05:27:49.350Z,100.00
2022-12-18T05:30:17.242Z,100.00
2022-12-18T05:32:44.274Z,100.00
2022-12-18T05:35:11.928Z,100.00
2022-12-18T05:37:42.886Z,100.00
2022-12-18T05:40:10.739Z,100.00
2022-12-18T05:42:37.242Z,100.00
2022-12-18T05:45:04.556Z,100.00
2022-12-18T05:47:31.137Z,100.00
2022-12-18T05:49:57.736Z,100.00
2022-12-18T05:52:24.361Z,100.00
2022-12-18T05:54:51.126Z,100.00
2022-12-18T05:57:17.694Z,100.00
2022-12-18T05:59:44.626Z,100.00
2022-12-18T06:02:11.322Z,100.00
2022-12-18T06:04:38.160Z,100.00
2022-12-18T06:07:04.783Z,100.00
2022-12-18T06:09:31.452Z,100.00
2022-12-18T06:11:58.015Z,100.00
2022-12-18T06:14:24.533Z,100.00
2022-12-18T06:16:54.172Z,100.00
2022-12-18T06:19:20.910Z,100.00
2022-12-18T06:21:48.112Z,100.00
2022-12-18T06:24:18.784Z,100.00
2022-12-18T06:26:45.413Z,100.00
2022-12-18T06:29:12.022Z,100.00
2022-12-18T06:31:38.626Z,100.00
2022-12-18T06:34:06.059Z,100.00
2022-12-18T06:36:33.171Z,100.00
2022-12-18T06:38:59.760Z,100.00
2022-12-18T06:41:26.582Z,100.00
2022-12-18T06:43:58.119Z,100.00
2022-12-18T06:46:26.178Z,100.00
2022-12-18T06:48:52.722Z,100.00
2022-12-18T06:51:24.072Z,100.00
2022-12-18T06:53:50.786Z,100.00
2022-12-18T06:56:17.791Z,100.00
2022-12-18T06:58:44.685Z,100.00
2022-12-18T07:01:12.961Z,100.00
2022-12-18T07:03:41.495Z,100.00
2022-12-18T07:06:15.099Z,100.00
2022-12-18T07:08:41.659Z,100.00
2022-12-18T07:11:08.351Z,100.00
2022-12-18T07:13:34.945Z,100.00
2022-12-18T07:16:22.355Z,100.00
2022-12-18T07:18:50.752Z,100.00
2022-12-18T07:21:19.647Z,100.00
2022-12-18T07:23:48.968Z,100.00
2022-12-18T07:26:18.824Z,100.00
2022-12-18T07:28:45.548Z,100.00
2022-12-18T07:31:15.585Z,100.00
2022-12-18T07:33:43.126Z,100.00
2022-12-18T07:36:11.257Z,100.00
2022-12-18T07:38:37.940Z,100.00
2022-12-18T07:41:14.768Z,100.00
2022-12-18T07:43:42.812Z,100.00
2022-12-18T07:46:10.902Z,100.00
2022-12-18T07:48:39.639Z,100.00
2022-12-18T07:51:08.166Z,100.00
2022-12-18T07:53:36.863Z,100.00
2022-12-18T07:56:26.710Z,100.00
2022-12-18T07:58:53.313Z,100.00
2022-12-18T08:01:19.993Z,100.00
2022-12-18T08:03:47.961Z,100.00
2022-12-18T08:06:14.897Z,100.00
2022-12-18T08:08:43.174Z,100.00
2022-12-18T08:11:09.853Z,100.00
2022-12-18T08:13:36.755Z,100.00
2022-12-18T08:16:08.452Z,100.00
2022-12-18T08:18:37.125Z,100.00
2022-12-18T08:21:16.051Z,100.00
2022-12-18T08:23:43.798Z,100.00
2022-12-18T08:26:11.957Z,100.00
2022-12-18T08:28:38.764Z,100.00
2022-12-18T08:31:05.904Z,100.00
2022-12-18T08:33:33.244Z,100.00
2022-12-18T08:36:00.913Z,100.00
2022-12-18T08:38:27.651Z,100.00
2022-12-18T08:41:01.492Z,100.00
2022-12-18T08:43:47.332Z,100.00
2022-12-18T08:46:14.244Z,100.00
2022-12-18T08:48:40.857Z,100.00
2022-12-18T08:51:07.784Z,100.00
2022-12-18T08:53:35.902Z,100.00
2022-12-18T08:56:03.695Z,100.00
2022-12-18T08:58:30.885Z,100.00
2022-12-18T09:01:05.581Z,100.00
2022-12-18T09:03:32.236Z,100.00
2022-12-18T09:05:58.789Z,100.00
2022-12-18T09:08:25.444Z,100.00
2022-12-18T09:10:53.031Z,100.00
2022-12-18T09:13:19.890Z,100.00
2022-12-18T09:15:48.968Z,100.00
2022-12-18T09:18:17.513Z,100.00
2022-12-18T09:20:45.251Z,100.00
2022-12-18T09:23:12.572Z,100.00
2022-12-18T09:25:39.480Z,100.00
2022-12-18T09:28:17.494Z,100.00
2022-12-18T09:30:49.866Z,100.00
2022-12-18T09:33:17.762Z,100.00
2022-12-18T09:35:46.006Z,100.00
2022-12-18T09:38:18.876Z,100.00
2022-12-18T09:40:52.627Z,100.00
2022-12-18T09:43:25.615Z,100.00
2022-12-18T09:45:58.161Z,100.00
2022-12-18T09:48:41.154Z,100.00
2022-12-18T09:51:18.573Z,100.00
2022-12-18T09:53:51.555Z,100.00
2022-12-18T09:56:23.582Z,100.00
2022-12-18T09:58:58.285Z,100.00
2022-12-18T10:01:28.968Z,100.00
2022-12-18T10:04:00.776Z,100.00
2022-12-18T10:06:39.373Z,100.00
2022-12-18T10:09:05.937Z,100.00
2022-12-18T10:11:47.400Z,100.00
2022-12-18T10:14:29.100Z,100.00
2022-12-18T10:17:11.004Z,100.00
2022-12-18T10:19:50.161Z,100.00
2022-12-18T10:22:40.436Z,100.00
2022-12-18T10:25:22.830Z,100.00
2022-12-18T10:27:54.386Z,100.00
2022-12-18T10:30:24.025Z,100.00
2022-12-18T10:32:51.065Z,100.00
2022-12-18T10:35:22.328Z,100.00
2022-12-18T10:38:15.172Z,100.00
2022-12-18T10:41:01.881Z,100.00
2022-12-18T10:43:38.715Z,100.00
2022-12-18T10:46:11.038Z,100.00
2022-12-18T10:48:50.115Z,100.00
2022-12-18T10:51:25.587Z,100.00
2022-12-18T10:53:58.567Z,100.00
2022-12-18T10:56:27.268Z,100.00
2022-12-18T10:59:09.555Z,100.00
2022-12-18T11:01:57.208Z,100.00
2022-12-18T11:04:29.832Z,100.00
2022-12-18T11:07:03.927Z,100.00
2022-12-18T11:09:35.905Z,100.00
2022-12-18T11:12:16.341Z,100.00
2022-12-18T11:14:50.632Z,100.00
2022-12-18T11:17:32.799Z,100.00
2022-12-18T11:20:01.706Z,100.00
2022-12-18T11:22:31.047Z,100.00
2022-12-18T11:28:26.013Z,100.00
2022-12-18T11:31:11.027Z,100.00
2022-12-18T11:33:53.192Z,100.00
2022-12-18T11:36:34.059Z,100.00
2022-12-18T11:39:10.539Z,100.00
2022-12-18T11:42:13.318Z,100.00
2022-12-18T11:44:42.550Z,100.00
2022-12-18T11:47:40.473Z,100.00
2022-12-18T11:50:15.448Z,100.00
2022-12-18T11:52:43.317Z,100.00
2022-12-18T11:55:16.180Z,100.00
2022-12-18T11:58:07.406Z,100.00
2022-12-18T12:00:41.860Z,100.00
2022-12-18T12:03:36.648Z,100.00
2022-12-18T12:06:34.822Z,100.00
2022-12-18T12:09:36.945Z,100.00
2022-12-18T12:12:24.782Z,100.00
2022-12-18T12:15:38.881Z,100.00
2022-12-18T12:18:37.424Z,100.00
2022-12-18T12:21:24.596Z,100.00
2022-12-18T12:23:58.331Z,100.00
2022-12-18T12:26:34.043Z,100.00
2022-12-18T12:29:23.176Z,100.00
2022-12-18T12:31:52.461Z,100.00
2022-12-18T12:34:23.437Z,100.00
2022-12-18T12:37:09.185Z,100.00
2022-12-18T12:39:40.579Z,100.00
2022-12-18T12:42:35.390Z,100.00
2022-12-18T12:45:07.614Z,100.00
2022-12-18T12:47:41.804Z,100.00
2022-12-18T12:50:17.370Z,100.00
2022-12-18T12:52:56.804Z,100.00
2022-12-18T12:55:29.063Z,100.00
2022-12-18T12:58:17.675Z,100.00
2022-12-18T13:00:58.492Z,100.00
2022-12-18T13:03:46.800Z,100.00
2022-12-18T13:06:55.635Z,100.00
2022-12-18T13:09:22.180Z,100.00
2022-12-18T13:12:07.671Z,100.00
2022-12-18T13:14:42.041Z,100.00
2022-12-18T13:17:25.886Z,100.00
2022-12-18T13:20:15.428Z,100.00
2022-12-18T13:22:51.273Z,100.00
2022-12-18T13:25:38.461Z,100.00
2022-12-18T13:28:16.509Z,100.00
2022-12-18T13:30:44.628Z,100.00
2022-12-18T13:33:25.346Z,100.00
2022-12-18T13:36:03.892Z,100.00
2022-12-18T13:38:33.167Z,100.00
2022-12-18T13:41:21.519Z,100.00
2022-12-18T13:43:54.425Z,100.00
2022-12-18T13:46:26.724Z,100.00
2022-12-18T13:49:14.885Z,100.00
2022-12-18T13:51:45.035Z,100.00
2022-12-18T13:54:23.454Z,100.00
2022-12-18T13:56:50.209Z,100.00
2022-12-18T13:59:23.215Z,100.00
2022-12-18T14:01:59.032Z,100.00
2022-12-18T14:04:31.572Z,100.00
2022-12-18T14:07:10.908Z,100.00
2022-12-18T14:10:41.816Z,100.00
2022-12-18T14:13:07.930Z,100.00
2022-12-18T14:15:40.455Z,100.00
2022-12-18T14:18:39.218Z,100.00
2022-12-18T14:21:06.745Z,100.00
2022-12-18T14:23:36.713Z,100.00
2022-12-18T14:26:20.945Z,100.00
2022-12-18T14:28:47.859Z,100.00
2022-12-18T14:31:23.107Z,100.00
2022-12-18T14:33:50.992Z,100.00
2022-12-18T14:36:23.504Z,100.00
2022-12-18T14:38:55.345Z,100.00
2022-12-18T14:41:23.448Z,100.00
2022-12-18T14:43:52.222Z,100.00
2022-12-18T14:46:37.798Z,100.00
2022-12-18T14:49:35.367Z,100.00
2022-12-18T14:52:17.484Z,100.00
2022-12-18T14:54:47.564Z,100.00
2022-12-18T14:57:24.557Z,100.00
2022-12-18T14:59:51.953Z,100.00
2022-12-18T15:02:26.259Z,100.00
2022-12-18T15:05:12.993Z,100.00
2022-12-18T15:07:47.668Z,100.00
2022-12-18T15:10:21.250Z,100.00
2022-12-18T15:12:50.435Z,100.00
2022-12-18T15:15:41.515Z,100.00
2022-12-18T15:18:08.042Z,100.00
2022-12-18T15:20:40.836Z,100.00
2022-12-18T15:23:24.273Z,100.00
2022-12-18T15:26:06.250Z,100.00
2022-12-18T15:28:36.293Z,100.00
2022-12-18T15:31:17.741Z,100.00
2022-12-18T15:33:53.930Z,100.00
2022-12-18T15:36:26.176Z,100.00
2022-12-18T15:38:55.199Z,100.00
2022-12-18T15:41:24.817Z,100.00
2022-12-18T15:43:53.222Z,100.00
2022-12-18T15:46:22.639Z,100.00
2022-12-18T15:48:55.427Z,100.00
2022-12-18T15:51:29.343Z,100.00
2022-12-18T15:53:59.529Z,100.00
2022-12-18T15:56:49.897Z,100.00
2022-12-18T15:59:19.084Z,100.00
2022-12-18T16:01:48.818Z,100.00
2022-12-18T16:04:18.013Z,100.00
2022-12-18T16:07:13.141Z,100.00
2022-12-18T16:09:31.246Z,100.00
2022-12-18T16:11:57.888Z,100.00
2022-12-18T16:14:27.701Z,100.00
2022-12-18T16:17:04.384Z,100.00
2022-12-18T16:19:31.405Z,100.00
2022-12-18T16:21:59.909Z,100.00
2022-12-18T16:24:29.836Z,100.00
2022-12-18T16:26:59.834Z,100.00
2022-12-18T16:29:28.731Z,100.00
2022-12-18T16:32:01.693Z,100.00
2022-12-18T16:34:31.415Z,100.00
2022-12-18T16:37:05.463Z,100.00
2022-12-18T16:39:36.228Z,100.00
2022-12-18T16:42:09.893Z,100.00
2022-12-18T16:44:36.862Z,100.00
2022-12-18T16:47:04.379Z,100.00
2022-12-18T16:49:31.980Z,100.00
2022-12-18T16:51:58.660Z,100.00
2022-12-18T16:54:25.414Z,100.00
2022-12-18T16:56:52.572Z,100.00
2022-12-18T16:59:19.368Z,100.00
2022-12-18T17:01:47.400Z,100.00
2022-12-18T17:04:14.779Z,100.00
2022-12-18T17:06:44.224Z,100.00
2022-12-18T17:09:15.923Z,100.00
2022-12-18T17:11:43.230Z,100.00
2022-12-18T17:14:14.127Z,100.00
2022-12-18T17:16:40.771Z,100.00
2022-12-18T17:19:12.112Z,100.00
2022-12-18T17:21:41.936Z,100.00
2022-12-18T17:24:08.937Z,100.00
2022-12-18T17:26:35.526Z,100.00
2022-12-18T17:29:02.114Z,100.00
2022-12-18T17:31:29.985Z,100.00
2022-12-18T17:33:57.580Z,100.00
2022-12-18T17:36:25.054Z,100.00
2022-12-18T17:38:56.363Z,100.00
2022-12-18T17:41:23.621Z,100.00
2022-12-18T17:44:06.776Z,100.00
2022-12-18T17:46:34.304Z,100.00
2022-12-18T17:49:03.003Z,100.00
2022-12-18T17:51:31.155Z,100.00
2022-12-18T17:53:57.773Z,100.00
2022-12-18T17:56:25.264Z,100.00
2022-12-18T17:58:52.306Z,100.00
2022-12-18T18:01:23.211Z,100.00
2022-12-18T18:03:50.766Z,100.00
2022-12-18T18:06:20.358Z,100.00
2022-12-18T18:08:46.925Z,100.00
2022-12-18T18:11:36.961Z,100.00
2022-12-18T18:14:06.980Z,100.00
2022-12-18T18:16:37.468Z,100.00
2022-12-18T18:19:08.210Z,100.00
2022-12-18T18:21:38.326Z,100.00
2022-12-18T18:24:05.811Z,100.00
2022-12-18T18:26:34.116Z,100.00
2022-12-18T18:29:03.028Z,100.00
2022-12-18T18:31:34.794Z,100.00
2022-12-18T18:34:06.936Z,100.00
2022-12-18T18:36:34.715Z,100.00
2022-12-18T18:39:02.191Z,100.00
2022-12-18T18:41:30.569Z,100.00
2022-12-18T18:43:58.539Z,100.00
2022-12-18T18:46:25.779Z,100.00
2022-12-18T18:48:52.614Z,100.00
2022-12-18T18:51:21.780Z,100.00
2022-12-18T18:53:50.581Z,100.00
2022-12-18T18:56:45.451Z,100.00
2022-12-18T18:59:05.863Z,100.00
2022-12-18T19:01:33.106Z,100.00
2022-12-18T19:04:00.810Z,100.00
2022-12-18T19:06:28.576Z,100.00
2022-12-18T19:08:57.061Z,100.00
2022-12-18T19:11:44.137Z,100.00
2022-12-18T19:14:13.645Z,100.00
2022-12-18T19:16:41.846Z,100.00
2022-12-18T19:19:08.997Z,100.00
2022-12-18T19:21:37.341Z,100.00
2022-12-18T19:24:05.134Z,100.00
2022-12-18T19:26:31.905Z,100.00
2022-12-18T19:29:03.240Z,100.00
2022-12-18T19:31:35.188Z,100.00
2022-12-18T19:34:02.686Z,100.00
2022-12-18T19:36:30.424Z,100.00
2022-12-18T19:38:59.916Z,100.00
2022-12-18T19:41:29.096Z,100.00
2022-12-18T19:43:58.431Z,100.00
2022-12-18T19:46:25.425Z,100.00
2022-12-18T19:48:52.502Z,100.00
2022-12-18T19:51:22.466Z,100.00
2022-12-18T19:53:53.591Z,100.00
2022-12-18T19:56:26.388Z,100.00
2022-12-18T19:58:53.987Z,100.00
2022-12-18T20:01:22.409Z,100.00
2022-12-18T20:03:52.559Z,100.00
2022-12-18T20:06:31.369Z,100.00
2022-12-18T20:09:01.394Z,100.00
2022-12-18T20:11:32.126Z,100.00
2022-12-18T20:13:58.865Z,100.00
2022-12-18T20:16:25.428Z,100.00
2022-12-18T20:18:55.059Z,100.00
2022-12-18T20:21:21.716Z,100.00
2022-12-18T20:23:48.280Z,100.00
2022-12-18T20:26:14.870Z,100.00
2022-12-18T20:28:42.297Z,100.00
2022-12-18T20:31:10.394Z,100.00
2022-12-18T20:33:37.616Z,100.00
2022-12-18T20:36:06.438Z,100.00
2022-12-18T20:38:35.481Z,100.00
2022-12-18T20:41:07.399Z,100.00
2022-12-18T20:43:34.006Z,100.00
2022-12-18T20:46:03.117Z,100.00
2022-12-18T20:48:30.248Z,100.00
2022-12-18T20:51:09.770Z,100.00
2022-12-18T20:53:36.893Z,100.00
2022-12-18T20:56:14.964Z,100.00
2022-12-18T20:58:45.380Z,100.00
2022-12-18T21:01:18.601Z,100.00
2022-12-18T21:03:46.532Z,100.00
2022-12-18T21:06:15.402Z,100.00
2022-12-18T21:08:42.508Z,100.00
2022-12-18T21:11:54.021Z,100.00
2022-12-18T21:14:23.257Z,100.00
2022-12-18T21:16:50.915Z,100.00
2022-12-18T21:19:20.044Z,100.00
2022-12-18T21:21:47.405Z,100.00
2022-12-18T21:24:14.261Z,100.00
2022-12-18T21:26:46.109Z,100.00
2022-12-18T21:29:15.776Z,100.00
2022-12-18T21:31:42.982Z,100.00
2022-12-18T21:34:14.886Z,100.00
2022-12-18T21:36:41.536Z,100.00
2022-12-18T21:39:08.445Z,100.00
2022-12-18T21:41:53.399Z,100.00
2022-12-18T21:44:22.413Z,100.00
2022-12-18T21:46:55.006Z,100.00
2022-12-18T21:49:26.401Z,100.00
2022-12-18T21:51:56.106Z,100.00
2022-12-18T21:54:25.125Z,100.00
2022-12-18T21:56:55.829Z,100.00
2022-12-18T21:59:29.323Z,100.00
2022-12-18T22:01:58.319Z,100.00
2022-12-18T22:04:25.766Z,100.00
2022-12-18T22:06:52.662Z,100.00
2022-12-18T22:09:21.437Z,100.00
2022-12-18T22:11:49.230Z,100.00
2022-12-18T22:14:16.784Z,100.00
2022-12-18T22:16:43.815Z,100.00
2022-12-18T22:19:11.071Z,100.00
2022-12-18T22:21:40.227Z,100.00
2022-12-18T22:24:10.670Z,100.00
2022-12-18T22:26:40.195Z,100.00
2022-12-18T22:29:26.399Z,100.00
2022-12-18T22:31:52.939Z,100.00
2022-12-18T22:34:22.991Z,100.00
2022-12-18T22:36:50.809Z,100.00
2022-12-18T22:39:28.545Z,100.00
2022-12-18T22:41:56.457Z,100.00
2022-12-18T22:44:26.177Z,100.00
2022-12-18T22:46:55.860Z,100.00
2022-12-18T22:49:33.148Z,100.00
2022-12-18T22:52:02.191Z,100.00
2022-12-18T22:54:28.775Z,100.00
2022-12-18T22:56:55.676Z,100.00
2022-12-18T22:59:23.355Z,100.00
2022-12-18T23:01:58.579Z,100.00
2022-12-18T23:04:36.064Z,100.00
2022-12-18T23:07:06.478Z,100.00
2022-12-18T23:09:33.948Z,100.00
2022-12-18T23:12:01.169Z,100.00
2022-12-18T23:14:28.746Z,100.00
2022-12-18T23:16:55.400Z,100.00
2022-12-18T23:19:23.611Z,100.00
2022-12-18T23:21:51.214Z,100.00
2022-12-18T23:24:18.202Z,100.00
2022-12-18T23:26:44.734Z,100.00
2022-12-18T23:29:11.314Z,100.00
2022-12-18T23:31:39.309Z,100.00
2022-12-18T23:34:06.991Z,100.00
2022-12-18T23:36:45.637Z,100.00
2022-12-18T23:39:19.964Z,100.00
2022-12-18T23:41:56.164Z,100.00
2022-12-18T23:44:22.863Z,100.00
2022-12-18T23:46:49.491Z,100.00
2022-12-18T23:49:16.195Z,100.00
2022-12-18T23:51:42.891Z,100.00
2022-12-18T23:54:10.256Z,100.00
2022-12-18T23:56:36.874Z,100.00
2022-12-18T23:59:03.573Z,100.00
